Hlavní strana
METAR-TAF:

METAR-TAF

Letiště :

Nižnij Novgorod, Rusko

zeměpisná šířka: 56-19-48N, zeměpisná délka: 044-00E, výška: 78 m

Aktuální stav počasí

Zpráva byla vytvořena před 39 minutami, v 19:00 UTC
Jihozápadní vítr 2 kt
Teplota 15°C
Vlhkost vzduchu 77%
Tlak 1021 hPa
Viditelnost 10 km a více
Skoro jasno ve výšce 3300 ft

METAR: UWGG 251900Z 22001MPS 9999 FEW033 15/11 Q1021 R36R/090070 NOSIG

Čas: 22:39 (19:39 UTC)

Předpověď počasí

Zpráva byla vytvořena před 2 hodinami a 49 minutami, v 16:50 UTC
Předpověď platná od 25 v 18 UTC do 26 v 18 UTC
Západní vítr 6 kt s nárazy do 16 kt
Viditelnost: 8000 m
Polojasno ve výšce 3000 ft

TAF: UWGG 251650Z 2518/2618 26003G08MPS 8000 SCT030 TX25/2612Z TN13/2603Z

Stav a předpovědi počasí z více než 4 000 letišť (zprávy METAR a TAF).

Červené a žluté tečky na mapě představují dostupné meteorologické stanice.

Když kurzor umístíte na tečku, zobrazí se název stanice.

Pak kliknutím zobrazíte stav a předpověď počasí.

Chcete-li změnit mapu, kliknutím na zelené tlačítko se znaménkem +mapu přiblížíte, kliknutím na zelené tlačítko se znaménkem – mapu oddálíte a kliknutím na zelené šipky přejdete na sousední mapy.


METAR-TAF: